sensor_id;sensor_type;location;lat;lon;timestamp;temperature;humidity
9810;DHT22;4944;52.514;13.192;2023-08-08T02:32:47;13.20;99.90
9810;DHT22;4944;52.514;13.192;2023-08-08T02:35:14;13.20;99.90
9810;DHT22;4944;52.514;13.192;2023-08-08T02:37:41;13.20;99.90
9810;DHT22;4944;52.514;13.192;2023-08-08T02:40:09;13.10;99.90
9810;DHT22;4944;52.514;13.192;2023-08-08T02:42:36;13.10;99.90
9810;DHT22;4944;52.514;13.192;2023-08-08T02:45:04;13.10;99.90
9810;DHT22;4944;52.514;13.192;2023-08-08T02:47:31;13.00;99.90
9810;DHT22;4944;52.514;13.192;2023-08-08T02:49:59;13.00;99.90
9810;DHT22;4944;52.514;13.192;2023-08-08T02:52:26;13.00;99.90
9810;DHT22;4944;52.514;13.192;2023-08-08T02:54:53;13.00;99.90
9810;DHT22;4944;52.514;13.192;2023-08-08T02:57:20;13.00;99.90
9810;DHT22;4944;52.514;13.192;2023-08-08T02:59:46;13.00;99.90
9810;DHT22;4944;52.514;13.192;2023-08-08T03:02:13;13.00;99.90
9810;DHT22;4944;52.514;13.192;2023-08-08T03:04:40;13.00;99.90
9810;DHT22;4944;52.514;13.192;2023-08-08T03:07:09;13.00;99.90
9810;DHT22;4944;52.514;13.192;2023-08-08T03:09:35;12.90;99.90
9810;DHT22;4944;52.514;13.192;2023-08-08T03:12:03;13.00;99.90
9810;DHT22;4944;52.514;13.192;2023-08-08T03:14:30;12.90;99.90
9810;DHT22;4944;52.514;13.192;2023-08-08T03:16:57;13.00;99.90
9810;DHT22;4944;52.514;13.192;2023-08-08T03:19:24;13.00;99.90
9810;DHT22;4944;52.514;13.192;2023-08-08T03:21:51;12.90;99.90
9810;DHT22;4944;52.514;13.192;2023-08-08T03:24:19;12.90;99.90
9810;DHT22;4944;52.514;13.192;2023-08-08T03:26:46;12.90;99.90
9810;DHT22;4944;52.514;13.192;2023-08-08T03:29:12;13.00;99.90
9810;DHT22;4944;52.514;13.192;2023-08-08T03:31:39;13.00;99.90
9810;DHT22;4944;52.514;13.192;2023-08-08T03:34:06;13.00;99.90
9810;DHT22;4944;52.514;13.192;2023-08-08T03:36:33;13.00;99.90
9810;DHT22;4944;52.514;13.192;2023-08-08T03:39:00;13.00;99.90
9810;DHT22;4944;52.514;13.192;2023-08-08T03:41:30;12.90;99.90
9810;DHT22;4944;52.514;13.192;2023-08-08T03:43:57;13.00;99.90
9810;DHT22;4944;52.514;13.192;2023-08-08T03:46:24;13.00;99.90
9810;DHT22;4944;52.514;13.192;2023-08-08T03:48:50;13.00;99.90
9810;DHT22;4944;52.514;13.192;2023-08-08T03:51:17;12.90;99.90
9810;DHT22;4944;52.514;13.192;2023-08-08T03:53:44;13.00;99.90
9810;DHT22;4944;52.514;13.192;2023-08-08T03:56:11;13.00;99.90
9810;DHT22;4944;52.514;13.192;2023-08-08T03:58:39;13.00;99.90
9810;DHT22;4944;52.514;13.192;2023-08-08T04:01:06;13.00;99.90
9810;DHT22;4944;52.514;13.192;2023-08-08T04:03:33;13.10;99.90
9810;DHT22;4944;52.514;13.192;2023-08-08T04:06:00;13.10;99.90
9810;DHT22;4944;52.514;13.192;2023-08-08T04:08:27;13.10;99.90
9810;DHT22;4944;52.514;13.192;2023-08-08T04:10:53;13.10;99.90
9810;DHT22;4944;52.514;13.192;2023-08-08T04:13:20;13.10;99.90
9810;DHT22;4944;52.514;13.192;2023-08-08T04:15:49;13.10;99.90
9810;DHT22;4944;52.514;13.192;2023-08-08T04:18:17;13.10;99.90
9810;DHT22;4944;52.514;13.192;2023-08-08T04:20:45;13.10;99.90
9810;DHT22;4944;52.514;13.192;2023-08-08T04:23:12;13.10;99.90
9810;DHT22;4944;52.514;13.192;2023-08-08T04:25:39;13.10;99.90
9810;DHT22;4944;52.514;13.192;2023-08-08T04:28:06;13.20;99.90
9810;DHT22;4944;52.514;13.192;2023-08-08T04:30:33;13.20;99.90
9810;DHT22;4944;52.514;13.192;2023-08-08T04:33:02;13.20;99.90
9810;DHT22;4944;52.514;13.192;2023-08-08T04:35:29;13.20;99.90
9810;DHT22;4944;52.514;13.192;2023-08-08T04:37:56;13.20;99.90
9810;DHT22;4944;52.514;13.192;2023-08-08T04:40:22;13.20;99.90
9810;DHT22;4944;52.514;13.192;2023-08-08T04:42:51;13.20;99.90
9810;DHT22;4944;52.514;13.192;2023-08-08T04:45:18;13.30;99.90
9810;DHT22;4944;52.514;13.192;2023-08-08T04:47:46;13.30;99.90
9810;DHT22;4944;52.514;13.192;2023-08-08T04:50:14;13.30;99.90
9810;DHT22;4944;52.514;13.192;2023-08-08T04:52:41;13.30;99.90
9810;DHT22;4944;52.514;13.192;2023-08-08T04:55:09;13.40;99.90
9810;DHT22;4944;52.514;13.192;2023-08-08T04:57:36;13.40;99.90
9810;DHT22;4944;52.514;13.192;2023-08-08T05:00:03;13.40;99.90
9810;DHT22;4944;52.514;13.192;2023-08-08T05:02:33;13.40;99.90
9810;DHT22;4944;52.514;13.192;2023-08-08T05:05:00;13.40;99.90
9810;DHT22;4944;52.514;13.192;2023-08-08T05:07:28;13.40;99.90
9810;DHT22;4944;52.514;13.192;2023-08-08T05:09:55;13.50;99.90
9810;DHT22;4944;52.514;13.192;2023-08-08T05:12:22;13.50;99.90
9810;DHT22;4944;52.514;13.192;2023-08-08T05:14:49;13.50;99.90
9810;DHT22;4944;52.514;13.192;2023-08-08T05:17:16;13.40;99.90
9810;DHT22;4944;52.514;13.192;2023-08-08T05:19:43;13.50;99.90
9810;DHT22;4944;52.514;13.192;2023-08-08T05:22:10;13.60;99.90
9810;DHT22;4944;52.514;13.192;2023-08-08T05:24:38;13.70;99.90
9810;DHT22;4944;52.514;13.192;2023-08-08T05:27:05;13.70;99.90
9810;DHT22;4944;52.514;13.192;2023-08-08T05:29:32;13.80;99.90
9810;DHT22;4944;52.514;13.192;2023-08-08T05:31:59;13.90;99.90
9810;DHT22;4944;52.514;13.192;2023-08-08T05:34:26;14.00;99.90
9810;DHT22;4944;52.514;13.192;2023-08-08T05:36:53;14.00;99.90
9810;DHT22;4944;52.514;13.192;2023-08-08T05:39:20;14.10;99.90
9810;DHT22;4944;52.514;13.192;2023-08-08T05:41:48;14.20;99.90
9810;DHT22;4944;52.514;13.192;2023-08-08T05:44:15;14.20;99.90
9810;DHT22;4944;52.514;13.192;2023-08-08T05:46:42;14.20;99.90
9810;DHT22;4944;52.514;13.192;2023-08-08T05:49:09;14.30;99.90
9810;DHT22;4944;52.514;13.192;2023-08-08T05:51:36;14.20;99.90
9810;DHT22;4944;52.514;13.192;2023-08-08T05:54:03;14.20;99.90
9810;DHT22;4944;52.514;13.192;2023-08-08T05:56:34;14.20;99.90
9810;DHT22;4944;52.514;13.192;2023-08-08T05:59:04;14.30;99.90
9810;DHT22;4944;52.514;13.192;2023-08-08T06:01:31;14.30;99.90
9810;DHT22;4944;52.514;13.192;2023-08-08T06:03:58;14.40;99.90
9810;DHT22;4944;52.514;13.192;2023-08-08T06:06:25;14.50;99.90
9810;DHT22;4944;52.514;13.192;2023-08-08T06:08:52;14.60;99.90
9810;DHT22;4944;52.514;13.192;2023-08-08T06:11:19;14.60;99.90
9810;DHT22;4944;52.514;13.192;2023-08-08T06:13:46;14.60;99.90
9810;DHT22;4944;52.514;13.192;2023-08-08T06:16:15;14.70;99.90
9810;DHT22;4944;52.514;13.192;2023-08-08T06:18:44;14.80;99.90
9810;DHT22;4944;52.514;13.192;2023-08-08T06:21:10;14.80;99.90
9810;DHT22;4944;52.514;13.192;2023-08-08T06:23:37;14.90;99.90
9810;DHT22;4944;52.514;13.192;2023-08-08T06:26:04;15.00;99.90
9810;DHT22;4944;52.514;13.192;2023-08-08T06:28:32;15.00;99.90
9810;DHT22;4944;52.514;13.192;2023-08-08T06:30:58;15.00;99.90
9810;DHT22;4944;52.514;13.192;2023-08-08T06:33:27;15.00;99.90
9810;DHT22;4944;52.514;13.192;2023-08-08T06:35:55;15.00;99.90
9810;DHT22;4944;52.514;13.192;2023-08-08T06:38:22;15.00;99.90
9810;DHT22;4944;52.514;13.192;2023-08-08T06:40:49;14.90;99.90
9810;DHT22;4944;52.514;13.192;2023-08-08T06:43:17;14.90;99.90
9810;DHT22;4944;52.514;13.192;2023-08-08T06:45:43;14.80;99.90
9810;DHT22;4944;52.514;13.192;2023-08-08T06:48:10;14.90;99.90
9810;DHT22;4944;52.514;13.192;2023-08-08T06:50:39;14.90;99.90
9810;DHT22;4944;52.514;13.192;2023-08-08T06:53:05;14.90;99.90
9810;DHT22;4944;52.514;13.192;2023-08-08T06:55:32;15.00;99.90
9810;DHT22;4944;52.514;13.192;2023-08-08T06:57:59;15.20;99.90
9810;DHT22;4944;52.514;13.192;2023-08-08T07:00:26;15.30;99.90
9810;DHT22;4944;52.514;13.192;2023-08-08T07:02:53;15.40;99.90
9810;DHT22;4944;52.514;13.192;2023-08-08T07:05:20;15.40;99.90
9810;DHT22;4944;52.514;13.192;2023-08-08T07:07:49;15.40;99.90
9810;DHT22;4944;52.514;13.192;2023-08-08T07:10:16;15.40;99.90
9810;DHT22;4944;52.514;13.192;2023-08-08T07:12:43;15.40;99.90
9810;DHT22;4944;52.514;13.192;2023-08-08T07:15:11;15.40;99.90
9810;DHT22;4944;52.514;13.192;2023-08-08T07:17:37;15.40;99.90
9810;DHT22;4944;52.514;13.192;2023-08-08T07:20:06;15.40;99.90
9810;DHT22;4944;52.514;13.192;2023-08-08T07:22:33;15.40;99.90
9810;DHT22;4944;52.514;13.192;2023-08-08T07:25:01;15.40;99.90
9810;DHT22;4944;52.514;13.192;2023-08-08T07:27:30;15.40;99.90
9810;DHT22;4944;52.514;13.192;2023-08-08T07:29:57;15.50;99.90
9810;DHT22;4944;52.514;13.192;2023-08-08T07:32:24;15.50;99.90
9810;DHT22;4944;52.514;13.192;2023-08-08T07:34:51;15.50;99.90
9810;DHT22;4944;52.514;13.192;2023-08-08T07:37:18;15.60;99.90
9810;DHT22;4944;52.514;13.192;2023-08-08T07:39:45;15.60;99.90
9810;DHT22;4944;52.514;13.192;2023-08-08T07:42:13;15.60;99.90
9810;DHT22;4944;52.514;13.192;2023-08-08T07:44:40;15.60;99.90
9810;DHT22;4944;52.514;13.192;2023-08-08T07:47:07;15.60;99.90
9810;DHT22;4944;52.514;13.192;2023-08-08T07:49:33;15.60;99.90
9810;DHT22;4944;52.514;13.192;2023-08-08T07:52:00;15.60;99.90
9810;DHT22;4944;52.514;13.192;2023-08-08T07:54:28;15.70;99.90
9810;DHT22;4944;52.514;13.192;2023-08-08T07:56:54;15.70;99.90
9810;DHT22;4944;52.514;13.192;2023-08-08T07:59:23;15.80;99.90
9810;DHT22;4944;52.514;13.192;2023-08-08T08:01:49;15.90;99.90
9810;DHT22;4944;52.514;13.192;2023-08-08T08:04:16;15.90;99.90
9810;DHT22;4944;52.514;13.192;2023-08-08T08:06:46;16.00;99.90
9810;DHT22;4944;52.514;13.192;2023-08-08T08:09:13;16.10;99.90
9810;DHT22;4944;52.514;13.192;2023-08-08T08:11:40;16.20;99.90
9810;DHT22;4944;52.514;13.192;2023-08-08T08:14:07;16.20;99.90
9810;DHT22;4944;52.514;13.192;2023-08-08T08:16:35;16.20;99.90
9810;DHT22;4944;52.514;13.192;2023-08-08T08:19:02;16.20;99.90
9810;DHT22;4944;52.514;13.192;2023-08-08T08:21:29;16.40;99.90
9810;DHT22;4944;52.514;13.192;2023-08-08T08:23:56;16.50;99.90
9810;DHT22;4944;52.514;13.192;2023-08-08T08:26:23;16.60;99.90
9810;DHT22;4944;52.514;13.192;2023-08-08T08:28:50;16.70;99.90
9810;DHT22;4944;52.514;13.192;2023-08-08T08:31:17;16.70;99.90
9810;DHT22;4944;52.514;13.192;2023-08-08T08:33:45;16.60;99.90
9810;DHT22;4944;52.514;13.192;2023-08-08T08:36:12;16.50;99.90
9810;DHT22;4944;52.514;13.192;2023-08-08T08:38:39;16.40;99.90
9810;DHT22;4944;52.514;13.192;2023-08-08T08:41:06;16.40;99.90
9810;DHT22;4944;52.514;13.192;2023-08-08T08:43:35;16.50;99.90
9810;DHT22;4944;52.514;13.192;2023-08-08T08:46:03;16.60;99.90
9810;DHT22;4944;52.514;13.192;2023-08-08T08:48:30;16.60;99.90
9810;DHT22;4944;52.514;13.192;2023-08-08T08:50:59;16.70;99.90
9810;DHT22;4944;52.514;13.192;2023-08-08T08:53:26;16.70;99.90
9810;DHT22;4944;52.514;13.192;2023-08-08T08:55:53;16.80;99.90
9810;DHT22;4944;52.514;13.192;2023-08-08T08:58:22;16.90;99.90
9810;DHT22;4944;52.514;13.192;2023-08-08T09:00:51;17.00;99.90
9810;DHT22;4944;52.514;13.192;2023-08-08T09:03:18;17.00;99.90
9810;DHT22;4944;52.514;13.192;2023-08-08T09:05:45;17.00;99.90
9810;DHT22;4944;52.514;13.192;2023-08-08T09:08:15;17.10;99.90
9810;DHT22;4944;52.514;13.192;2023-08-08T09:10:42;17.20;99.90
9810;DHT22;4944;52.514;13.192;2023-08-08T09:13:08;17.30;99.90
9810;DHT22;4944;52.514;13.192;2023-08-08T09:15:35;17.30;99.90
9810;DHT22;4944;52.514;13.192;2023-08-08T09:18:02;17.30;99.90
9810;DHT22;4944;52.514;13.192;2023-08-08T09:20:29;17.30;99.90
9810;DHT22;4944;52.514;13.192;2023-08-08T09:22:57;17.30;99.90
9810;DHT22;4944;52.514;13.192;2023-08-08T09:25:26;17.40;99.90
9810;DHT22;4944;52.514;13.192;2023-08-08T09:27:53;17.60;99.90
9810;DHT22;4944;52.514;13.192;2023-08-08T09:30:20;17.80;99.90
9810;DHT22;4944;52.514;13.192;2023-08-08T09:32:47;17.90;99.90
9810;DHT22;4944;52.514;13.192;2023-08-08T09:35:15;18.10;99.90
9810;DHT22;4944;52.514;13.192;2023-08-08T09:37:42;18.10;99.90
9810;DHT22;4944;52.514;13.192;2023-08-08T09:40:09;18.10;99.90
9810;DHT22;4944;52.514;13.192;2023-08-08T09:42:40;17.90;99.90
9810;DHT22;4944;52.514;13.192;2023-08-08T09:45:08;17.70;99.90
9810;DHT22;4944;52.514;13.192;2023-08-08T09:47:35;17.60;99.90
9810;DHT22;4944;52.514;13.192;2023-08-08T09:50:04;17.40;99.90
9810;DHT22;4944;52.514;13.192;2023-08-08T09:52:33;17.30;99.90
9810;DHT22;4944;52.514;13.192;2023-08-08T09:55:00;17.20;99.90
9810;DHT22;4944;52.514;13.192;2023-08-08T09:57:28;17.20;99.90
9810;DHT22;4944;52.514;13.192;2023-08-08T09:59:57;17.10;99.90
9810;DHT22;4944;52.514;13.192;2023-08-08T10:02:24;17.10;99.90
9810;DHT22;4944;52.514;13.192;2023-08-08T10:04:53;17.10;99.90
9810;DHT22;4944;52.514;13.192;2023-08-08T10:07:21;17.10;99.90
9810;DHT22;4944;52.514;13.192;2023-08-08T10:09:48;17.10;99.90
9810;DHT22;4944;52.514;13.192;2023-08-08T10:12:15;17.10;99.90
9810;DHT22;4944;52.514;13.192;2023-08-08T10:14:44;17.10;99.90
9810;DHT22;4944;52.514;13.192;2023-08-08T10:17:15;17.30;99.90
9810;DHT22;4944;52.514;13.192;2023-08-08T10:19:50;17.50;99.90
9810;DHT22;4944;52.514;13.192;2023-08-08T10:22:21;17.80;99.90
9810;DHT22;4944;52.514;13.192;2023-08-08T10:24:51;18.00;99.90
9810;DHT22;4944;52.514;13.192;2023-08-08T10:27:27;18.30;99.90
9810;DHT22;4944;52.514;13.192;2023-08-08T10:30:01;18.60;99.90
9810;DHT22;4944;52.514;13.192;2023-08-08T10:32:38;18.50;99.90
9810;DHT22;4944;52.514;13.192;2023-08-08T10:35:06;18.40;99.90
9810;DHT22;4944;52.514;13.192;2023-08-08T10:37:34;18.20;99.90
9810;DHT22;4944;52.514;13.192;2023-08-08T10:40:01;18.00;99.90
9810;DHT22;4944;52.514;13.192;2023-08-08T10:42:31;17.60;99.90
9810;DHT22;4944;52.514;13.192;2023-08-08T10:44:59;17.30;99.90
9810;DHT22;4944;52.514;13.192;2023-08-08T10:47:30;17.20;99.90
9810;DHT22;4944;52.514;13.192;2023-08-08T10:50:03;17.20;99.90
9810;DHT22;4944;52.514;13.192;2023-08-08T10:52:30;17.30;99.90
9810;DHT22;4944;52.514;13.192;2023-08-08T10:55:01;17.40;99.90
9810;DHT22;4944;52.514;13.192;2023-08-08T10:57:28;17.70;99.90
9810;DHT22;4944;52.514;13.192;2023-08-08T11:00:16;18.00;99.90
9810;DHT22;4944;52.514;13.192;2023-08-08T11:02:44;18.30;99.90
9810;DHT22;4944;52.514;13.192;2023-08-08T11:05:14;18.70;99.90
9810;DHT22;4944;52.514;13.192;2023-08-08T11:07:42;18.80;99.90
9810;DHT22;4944;52.514;13.192;2023-08-08T11:10:09;19.10;99.90
9810;DHT22;4944;52.514;13.192;2023-08-08T11:12:36;19.20;99.90
9810;DHT22;4944;52.514;13.192;2023-08-08T11:15:04;18.90;99.90
9810;DHT22;4944;52.514;13.192;2023-08-08T11:17:32;18.00;99.90
9810;DHT22;4944;52.514;13.192;2023-08-08T11:19:59;17.50;99.90
9810;DHT22;4944;52.514;13.192;2023-08-08T11:22:28;17.40;99.90
9810;DHT22;4944;52.514;13.192;2023-08-08T11:24:55;17.00;99.90
9810;DHT22;4944;52.514;13.192;2023-08-08T11:27:28;16.80;99.90
9810;DHT22;4944;52.514;13.192;2023-08-08T11:29:56;16.70;99.90
9810;DHT22;4944;52.514;13.192;2023-08-08T11:32:24;16.60;99.90
9810;DHT22;4944;52.514;13.192;2023-08-08T11:34:50;16.80;99.90
9810;DHT22;4944;52.514;13.192;2023-08-08T11:37:18;17.10;99.90
9810;DHT22;4944;52.514;13.192;2023-08-08T11:39:47;17.30;99.90
9810;DHT22;4944;52.514;13.192;2023-08-08T11:42:14;17.60;99.90
9810;DHT22;4944;52.514;13.192;2023-08-08T11:44:41;18.00;99.90
9810;DHT22;4944;52.514;13.192;2023-08-08T11:47:08;18.20;99.90
9810;DHT22;4944;52.514;13.192;2023-08-08T11:49:40;18.30;99.90
9810;DHT22;4944;52.514;13.192;2023-08-08T11:52:08;18.60;99.90
9810;DHT22;4944;52.514;13.192;2023-08-08T11:54:37;18.80;99.90
9810;DHT22;4944;52.514;13.192;2023-08-08T11:57:05;18.90;99.90
9810;DHT22;4944;52.514;13.192;2023-08-08T11:59:32;19.10;99.90
9810;DHT22;4944;52.514;13.192;2023-08-08T12:01:59;19.30;99.90
9810;DHT22;4944;52.514;13.192;2023-08-08T12:04:26;19.30;99.90
9810;DHT22;4944;52.514;13.192;2023-08-08T12:07:01;19.50;99.90
9810;DHT22;4944;52.514;13.192;2023-08-08T12:09:30;19.70;99.90
9810;DHT22;4944;52.514;13.192;2023-08-08T12:11:59;19.90;99.90
9810;DHT22;4944;52.514;13.192;2023-08-08T12:14:28;20.20;99.90
9810;DHT22;4944;52.514;13.192;2023-08-08T12:16:55;20.40;99.90
9810;DHT22;4944;52.514;13.192;2023-08-08T12:19:24;20.00;99.90
9810;DHT22;4944;52.514;13.192;2023-08-08T12:21:51;20.20;99.90
9810;DHT22;4944;52.514;13.192;2023-08-08T12:24:18;20.20;99.90
9810;DHT22;4944;52.514;13.192;2023-08-08T12:26:45;20.20;99.90
9810;DHT22;4944;52.514;13.192;2023-08-08T12:29:12;20.10;99.90
9810;DHT22;4944;52.514;13.192;2023-08-08T12:31:40;19.90;99.90
9810;DHT22;4944;52.514;13.192;2023-08-08T12:34:07;19.70;99.90
9810;DHT22;4944;52.514;13.192;2023-08-08T12:36:34;19.70;99.90
9810;DHT22;4944;52.514;13.192;2023-08-08T12:39:01;19.80;99.90
9810;DHT22;4944;52.514;13.192;2023-08-08T12:41:28;19.60;99.90
9810;DHT22;4944;52.514;13.192;2023-08-08T12:43:56;19.80;99.90
9810;DHT22;4944;52.514;13.192;2023-08-08T12:46:23;19.80;99.90
9810;DHT22;4944;52.514;13.192;2023-08-08T12:48:51;19.80;99.90
9810;DHT22;4944;52.514;13.192;2023-08-08T12:51:18;19.70;99.90
9810;DHT22;4944;52.514;13.192;2023-08-08T12:53:45;19.80;99.90
9810;DHT22;4944;52.514;13.192;2023-08-08T12:56:12;20.10;99.90
9810;DHT22;4944;52.514;13.192;2023-08-08T12:58:38;20.30;99.90
9810;DHT22;4944;52.514;13.192;2023-08-08T13:01:06;20.60;99.90
9810;DHT22;4944;52.514;13.192;2023-08-08T13:03:34;20.60;99.90
9810;DHT22;4944;52.514;13.192;2023-08-08T13:06:02;20.70;99.90
9810;DHT22;4944;52.514;13.192;2023-08-08T13:08:29;20.90;99.90
9810;DHT22;4944;52.514;13.192;2023-08-08T13:10:58;21.00;99.90
9810;DHT22;4944;52.514;13.192;2023-08-08T13:13:25;21.20;99.90
9810;DHT22;4944;52.514;13.192;2023-08-08T13:15:52;21.20;99.90
9810;DHT22;4944;52.514;13.192;2023-08-08T13:18:18;21.20;99.90
9810;DHT22;4944;52.514;13.192;2023-08-08T13:20:45;20.80;99.90
9810;DHT22;4944;52.514;13.192;2023-08-08T13:23:14;20.50;99.90
9810;DHT22;4944;52.514;13.192;2023-08-08T13:25:41;20.20;99.90
9810;DHT22;4944;52.514;13.192;2023-08-08T13:28:08;19.90;99.90
9810;DHT22;4944;52.514;13.192;2023-08-08T13:30:35;19.30;99.90
9810;DHT22;4944;52.514;13.192;2023-08-08T13:33:02;18.00;99.90
9810;DHT22;4944;52.514;13.192;2023-08-08T13:35:29;16.30;99.90
9810;DHT22;4944;52.514;13.192;2023-08-08T13:37:56;15.60;99.90
9810;DHT22;4944;52.514;13.192;2023-08-08T13:40:25;15.40;99.90
9810;DHT22;4944;52.514;13.192;2023-08-08T13:42:51;15.30;99.90
9810;DHT22;4944;52.514;13.192;2023-08-08T13:45:19;15.20;99.90
9810;DHT22;4944;52.514;13.192;2023-08-08T13:47:49;15.40;99.90
9810;DHT22;4944;52.514;13.192;2023-08-08T13:50:16;15.40;99.90
9810;DHT22;4944;52.514;13.192;2023-08-08T13:52:43;15.50;99.90
9810;DHT22;4944;52.514;13.192;2023-08-08T13:55:10;15.70;99.90
9810;DHT22;4944;52.514;13.192;2023-08-08T13:57:38;16.00;99.90
9810;DHT22;4944;52.514;13.192;2023-08-08T14:00:06;16.30;99.90
9810;DHT22;4944;52.514;13.192;2023-08-08T14:02:36;16.60;99.90
9810;DHT22;4944;52.514;13.192;2023-08-08T14:05:03;16.70;99.90
9810;DHT22;4944;52.514;13.192;2023-08-08T14:07:32;16.90;99.90
9810;DHT22;4944;52.514;13.192;2023-08-08T14:10:00;16.90;99.90
9810;DHT22;4944;52.514;13.192;2023-08-08T14:12:27;17.30;99.90
9810;DHT22;4944;52.514;13.192;2023-08-08T14:14:55;17.50;99.90
9810;DHT22;4944;52.514;13.192;2023-08-08T14:17:22;17.90;99.90
9810;DHT22;4944;52.514;13.192;2023-08-08T14:19:49;18.10;99.90
9810;DHT22;4944;52.514;13.192;2023-08-08T14:22:16;18.30;99.90
9810;DHT22;4944;52.514;13.192;2023-08-08T14:24:43;18.40;99.90
9810;DHT22;4944;52.514;13.192;2023-08-08T14:27:10;18.70;99.90
9810;DHT22;4944;52.514;13.192;2023-08-08T14:29:37;19.00;99.90
9810;DHT22;4944;52.514;13.192;2023-08-08T14:32:06;19.30;99.90
9810;DHT22;4944;52.514;13.192;2023-08-08T14:34:34;19.30;99.90
9810;DHT22;4944;52.514;13.192;2023-08-08T14:37:02;19.50;99.90
9810;DHT22;4944;52.514;13.192;2023-08-08T14:39:30;19.60;99.90
9810;DHT22;4944;52.514;13.192;2023-08-08T14:41:57;19.60;99.90
9810;DHT22;4944;52.514;13.192;2023-08-08T14:44:24;19.70;99.90
9810;DHT22;4944;52.514;13.192;2023-08-08T14:46:52;20.00;99.90
9810;DHT22;4944;52.514;13.192;2023-08-08T14:49:20;20.30;99.90
9810;DHT22;4944;52.514;13.192;2023-08-08T14:51:48;20.20;99.90
9810;DHT22;4944;52.514;13.192;2023-08-08T14:54:15;19.80;99.90
9810;DHT22;4944;52.514;13.192;2023-08-08T14:56:42;19.80;99.90
9810;DHT22;4944;52.514;13.192;2023-08-08T14:59:09;19.70;99.90
9810;DHT22;4944;52.514;13.192;2023-08-08T15:01:35;19.60;99.90
9810;DHT22;4944;52.514;13.192;2023-08-08T15:04:03;19.60;99.90
9810;DHT22;4944;52.514;13.192;2023-08-08T15:06:31;19.40;99.90
9810;DHT22;4944;52.514;13.192;2023-08-08T15:08:58;19.40;99.90
9810;DHT22;4944;52.514;13.192;2023-08-08T15:11:26;19.40;99.90
9810;DHT22;4944;52.514;13.192;2023-08-08T15:13:53;19.30;99.90
9810;DHT22;4944;52.514;13.192;2023-08-08T15:16:20;19.30;99.90
9810;DHT22;4944;52.514;13.192;2023-08-08T15:18:47;19.20;99.90
9810;DHT22;4944;52.514;13.192;2023-08-08T15:21:13;19.00;99.90
9810;DHT22;4944;52.514;13.192;2023-08-08T15:23:46;18.90;99.90
9810;DHT22;4944;52.514;13.192;2023-08-08T15:26:15;18.70;99.90
9810;DHT22;4944;52.514;13.192;2023-08-08T15:28:47;17.80;99.90
9810;DHT22;4944;52.514;13.192;2023-08-08T15:31:13;17.80;99.90
9810;DHT22;4944;52.514;13.192;2023-08-08T15:33:41;17.40;99.90
9810;DHT22;4944;52.514;13.192;2023-08-08T15:36:08;17.40;99.90
9810;DHT22;4944;52.514;13.192;2023-08-08T15:38:35;17.40;99.90
9810;DHT22;4944;52.514;13.192;2023-08-08T15:41:03;17.40;99.90
9810;DHT22;4944;52.514;13.192;2023-08-08T15:43:30;17.40;99.90
9810;DHT22;4944;52.514;13.192;2023-08-08T15:45:57;17.50;99.90
9810;DHT22;4944;52.514;13.192;2023-08-08T15:48:24;17.60;99.90
9810;DHT22;4944;52.514;13.192;2023-08-08T15:50:51;17.30;99.90
9810;DHT22;4944;52.514;13.192;2023-08-08T15:53:18;17.40;99.90
9810;DHT22;4944;52.514;13.192;2023-08-08T15:55:45;17.30;99.90
9810;DHT22;4944;52.514;13.192;2023-08-08T15:58:13;17.30;99.90
9810;DHT22;4944;52.514;13.192;2023-08-08T16:00:40;17.30;99.90
9810;DHT22;4944;52.514;13.192;2023-08-08T16:03:07;17.40;99.90
9810;DHT22;4944;52.514;13.192;2023-08-08T16:05:34;17.40;99.90
9810;DHT22;4944;52.514;13.192;2023-08-08T16:08:01;17.40;99.90
9810;DHT22;4944;52.514;13.192;2023-08-08T16:10:27;17.40;99.90
9810;DHT22;4944;52.514;13.192;2023-08-08T16:12:54;17.20;99.90
9810;DHT22;4944;52.514;13.192;2023-08-08T16:15:23;17.20;99.90
9810;DHT22;4944;52.514;13.192;2023-08-08T16:17:50;17.00;99.90
9810;DHT22;4944;52.514;13.192;2023-08-08T16:20:17;16.80;99.90
9810;DHT22;4944;52.514;13.192;2023-08-08T16:22:44;16.50;99.90
9810;DHT22;4944;52.514;13.192;2023-08-08T16:25:11;16.40;99.90
9810;DHT22;4944;52.514;13.192;2023-08-08T16:27:37;16.20;99.90
9810;DHT22;4944;52.514;13.192;2023-08-08T16:30:07;16.00;99.90
9810;DHT22;4944;52.514;13.192;2023-08-08T16:32:35;15.80;99.90
9810;DHT22;4944;52.514;13.192;2023-08-08T16:35:02;15.70;99.90
9810;DHT22;4944;52.514;13.192;2023-08-08T16:37:29;15.80;99.90
9810;DHT22;4944;52.514;13.192;2023-08-08T16:39:58;15.70;99.90
9810;DHT22;4944;52.514;13.192;2023-08-08T16:42:24;15.80;99.90
9810;DHT22;4944;52.514;13.192;2023-08-08T16:44:51;15.80;99.90
9810;DHT22;4944;52.514;13.192;2023-08-08T16:47:18;16.00;99.90
9810;DHT22;4944;52.514;13.192;2023-08-08T16:49:47;16.20;99.90
9810;DHT22;4944;52.514;13.192;2023-08-08T16:52:14;16.20;99.90
9810;DHT22;4944;52.514;13.192;2023-08-08T16:54:41;16.10;99.90
9810;DHT22;4944;52.514;13.192;2023-08-08T16:57:08;16.10;99.90
9810;DHT22;4944;52.514;13.192;2023-08-08T16:59:37;15.90;99.90
9810;DHT22;4944;52.514;13.192;2023-08-08T17:02:04;16.00;99.90
9810;DHT22;4944;52.514;13.192;2023-08-08T17:04:31;16.00;99.90
9810;DHT22;4944;52.514;13.192;2023-08-08T17:06:59;16.00;99.90
9810;DHT22;4944;52.514;13.192;2023-08-08T17:09:26;16.00;99.90
9810;DHT22;4944;52.514;13.192;2023-08-08T17:11:53;15.90;99.90
9810;DHT22;4944;52.514;13.192;2023-08-08T17:14:20;15.80;99.90
9810;DHT22;4944;52.514;13.192;2023-08-08T17:16:47;15.80;99.90
9810;DHT22;4944;52.514;13.192;2023-08-08T17:19:16;15.80;99.90
9810;DHT22;4944;52.514;13.192;2023-08-08T17:21:43;15.70;99.90
9810;DHT22;4944;52.514;13.192;2023-08-08T17:27:36;15.80;99.90
9810;DHT22;4944;52.514;13.192;2023-08-08T17:30:04;15.70;99.90
9810;DHT22;4944;52.514;13.192;2023-08-08T17:32:34;15.70;99.90
9810;DHT22;4944;52.514;13.192;2023-08-08T17:35:01;15.70;99.90
9810;DHT22;4944;52.514;13.192;2023-08-08T17:37:28;15.60;99.90
9810;DHT22;4944;52.514;13.192;2023-08-08T17:39:55;15.70;99.90
9810;DHT22;4944;52.514;13.192;2023-08-08T17:42:22;15.70;99.90
9810;DHT22;4944;52.514;13.192;2023-08-08T17:44:50;15.70;99.90
9810;DHT22;4944;52.514;13.192;2023-08-08T17:47:17;15.80;99.90
9810;DHT22;4944;52.514;13.192;2023-08-08T17:49:44;15.80;99.90
9810;DHT22;4944;52.514;13.192;2023-08-08T17:52:11;15.70;99.90
9810;DHT22;4944;52.514;13.192;2023-08-08T17:54:37;15.70;99.90
9810;DHT22;4944;52.514;13.192;2023-08-08T17:57:04;15.70;99.90
9810;DHT22;4944;52.514;13.192;2023-08-08T17:59:31;15.70;99.90
9810;DHT22;4944;52.514;13.192;2023-08-08T18:02:00;15.60;99.90
9810;DHT22;4944;52.514;13.192;2023-08-08T18:04:26;15.50;99.90
9810;DHT22;4944;52.514;13.192;2023-08-08T18:06:53;15.50;99.90
9810;DHT22;4944;52.514;13.192;2023-08-08T18:09:20;15.50;99.90
9810;DHT22;4944;52.514;13.192;2023-08-08T18:11:48;15.50;99.90
9810;DHT22;4944;52.514;13.192;2023-08-08T18:14:15;15.40;99.90
9810;DHT22;4944;52.514;13.192;2023-08-08T18:16:42;15.40;99.90
9810;DHT22;4944;52.514;13.192;2023-08-08T18:19:10;15.50;99.90
9810;DHT22;4944;52.514;13.192;2023-08-08T18:21:37;15.40;99.90